sensor_id;sensor_type;location;lat;lon;timestamp;pressure;altitude;pressure_sealevel;temperature;humidity
72061;BME280;59925;52.136;5.420;2023-05-07T00:00:01;101795.09;;;14.50;88.04
72061;BME280;59925;52.136;5.420;2023-05-07T00:02:28;101785.69;;;14.48;87.82
72061;BME280;59925;52.136;5.420;2023-05-07T00:04:55;101791.31;;;14.46;88.18
72061;BME280;59925;52.136;5.420;2023-05-07T00:07:22;101795.38;;;14.44;88.10
72061;BME280;59925;52.136;5.420;2023-05-07T00:09:49;101798.38;;;14.42;87.86
72061;BME280;59925;52.136;5.420;2023-05-07T00:12:15;101799.97;;;14.38;88.00
72061;BME280;59925;52.136;5.420;2023-05-07T00:14:42;101791.06;;;14.37;87.81
72061;BME280;59925;52.136;5.420;2023-05-07T00:17:08;101805.38;;;14.38;87.53
72061;BME280;59925;52.136;5.420;2023-05-07T00:19:35;101793.75;;;14.37;87.34
72061;BME280;59925;52.136;5.420;2023-05-07T00:22:01;101794.84;;;14.36;87.07
72061;BME280;59925;52.136;5.420;2023-05-07T00:24:27;101789.72;;;14.35;87.23
72061;BME280;59925;52.136;5.420;2023-05-07T00:26:54;101791.63;;;14.29;87.71
72061;BME280;59925;52.136;5.420;2023-05-07T00:29:21;101790.81;;;14.23;87.91
72061;BME280;59925;52.136;5.420;2023-05-07T00:31:49;101783.53;;;14.19;88.19
72061;BME280;59925;52.136;5.420;2023-05-07T00:34:15;101783.28;;;14.15;88.86
72061;BME280;59925;52.136;5.420;2023-05-07T00:36:42;101784.38;;;14.14;88.59
72061;BME280;59925;52.136;5.420;2023-05-07T00:39:08;101781.66;;;14.14;88.35
72061;BME280;59925;52.136;5.420;2023-05-07T00:41:35;101776.53;;;14.13;88.51
72061;BME280;59925;52.136;5.420;2023-05-07T00:44:01;101776.25;;;14.09;88.69
72061;BME280;59925;52.136;5.420;2023-05-07T00:46:30;101773.84;;;14.07;88.81
72061;BME280;59925;52.136;5.420;2023-05-07T00:48:57;101776.00;;;14.05;89.16
72061;BME280;59925;52.136;5.420;2023-05-07T00:51:25;101771.69;;;14.04;89.00
72061;BME280;59925;52.136;5.420;2023-05-07T00:53:53;101768.16;;;14.04;88.93
72061;BME280;59925;52.136;5.420;2023-05-07T00:56:23;101774.38;;;14.04;89.18
72061;BME280;59925;52.136;5.420;2023-05-07T00:58:50;101769.25;;;14.03;89.01
72061;BME280;59925;52.136;5.420;2023-05-07T01:01:16;101770.59;;;14.05;88.52
72061;BME280;59925;52.136;5.420;2023-05-07T01:03:43;101768.47;;;14.07;88.09
72061;BME280;59925;52.136;5.420;2023-05-07T01:06:11;101764.69;;;14.08;87.87
72061;BME280;59925;52.136;5.420;2023-05-07T01:08:40;101762.78;;;14.09;87.57
72061;BME280;59925;52.136;5.420;2023-05-07T01:11:07;101757.38;;;14.09;87.35
72061;BME280;59925;52.136;5.420;2023-05-07T01:13:35;101769.25;;;14.08;87.48
72061;BME280;59925;52.136;5.420;2023-05-07T01:16:02;101764.94;;;14.02;87.66
72061;BME280;59925;52.136;5.420;2023-05-07T01:18:29;101769.00;;;14.04;87.50
72061;BME280;59925;52.136;5.420;2023-05-07T01:20:59;101769.00;;;14.04;87.73
72061;BME280;59925;52.136;5.420;2023-05-07T01:23:27;101773.03;;;14.02;88.15
72061;BME280;59925;52.136;5.420;2023-05-07T01:25:54;101770.34;;;14.02;88.02
72061;BME280;59925;52.136;5.420;2023-05-07T01:28:21;101767.66;;;14.02;87.99
72061;BME280;59925;52.136;5.420;2023-05-07T01:30:52;101765.22;;;14.00;88.19
72061;BME280;59925;52.136;5.420;2023-05-07T01:33:21;101763.88;;;13.98;88.45
72061;BME280;59925;52.136;5.420;2023-05-07T01:35:51;101765.22;;;13.95;88.65
72061;BME280;59925;52.136;5.420;2023-05-07T01:38:21;101767.38;;;13.93;88.74
72061;BME280;59925;52.136;5.420;2023-05-07T01:40:48;101769.53;;;13.91;88.99
72061;BME280;59925;52.136;5.420;2023-05-07T01:43:15;101767.09;;;13.94;88.98
72061;BME280;59925;52.136;5.420;2023-05-07T01:45:42;101766.81;;;13.96;88.63
72061;BME280;59925;52.136;5.420;2023-05-07T01:48:11;101768.97;;;13.99;88.54
72061;BME280;59925;52.136;5.420;2023-05-07T01:50:39;101763.59;;;13.99;88.31
72061;BME280;59925;52.136;5.420;2023-05-07T01:53:06;101769.81;;;14.00;88.58
72061;BME280;59925;52.136;5.420;2023-05-07T01:55:32;101774.66;;;13.98;88.64
72061;BME280;59925;52.136;5.420;2023-05-07T01:57:59;101765.75;;;13.97;88.60
72061;BME280;59925;52.136;5.420;2023-05-07T02:00:25;101771.97;;;13.98;88.48
72061;BME280;59925;52.136;5.420;2023-05-07T02:02:52;101767.63;;;13.97;88.77
72061;BME280;59925;52.136;5.420;2023-05-07T02:05:19;101767.34;;;13.98;88.72
72061;BME280;59925;52.136;5.420;2023-05-07T02:07:46;101768.97;;;13.99;88.78
72061;BME280;59925;52.136;5.420;2023-05-07T02:10:12;101767.34;;;13.98;89.00
72061;BME280;59925;52.136;5.420;2023-05-07T02:12:39;101768.19;;;13.99;89.09
72061;BME280;59925;52.136;5.420;2023-05-07T02:15:06;101776.53;;;13.97;89.12
72061;BME280;59925;52.136;5.420;2023-05-07T02:17:32;101773.00;;;13.91;89.61
72061;BME280;59925;52.136;5.420;2023-05-07T02:19:59;101771.97;;;13.87;90.04
72061;BME280;59925;52.136;5.420;2023-05-07T02:22:26;101770.34;;;13.86;90.28
72061;BME280;59925;52.136;5.420;2023-05-07T02:24:52;101767.63;;;13.86;90.41
72061;BME280;59925;52.136;5.420;2023-05-07T02:27:18;101768.72;;;13.85;90.32
72061;BME280;59925;52.136;5.420;2023-05-07T02:29:45;101756.03;;;13.86;90.53
72061;BME280;59925;52.136;5.420;2023-05-07T02:32:12;101761.19;;;13.87;90.40
72061;BME280;59925;52.136;5.420;2023-05-07T02:34:38;101772.22;;;13.91;90.10
72061;BME280;59925;52.136;5.420;2023-05-07T02:37:05;101768.16;;;13.93;90.01
72061;BME280;59925;52.136;5.420;2023-05-07T02:39:32;101774.66;;;13.98;89.66
72061;BME280;59925;52.136;5.420;2023-05-07T02:41:58;101770.63;;;13.95;89.82
72061;BME280;59925;52.136;5.420;2023-05-07T02:44:25;101769.53;;;13.91;89.84
72061;BME280;59925;52.136;5.420;2023-05-07T02:46:51;101766.56;;;13.92;89.90
72061;BME280;59925;52.136;5.420;2023-05-07T02:49:18;101764.41;;;13.94;89.99
72061;BME280;59925;52.136;5.420;2023-05-07T02:51:44;101766.81;;;13.96;89.85
72061;BME280;59925;52.136;5.420;2023-05-07T02:54:11;101761.41;;;13.96;89.70
72061;BME280;59925;52.136;5.420;2023-05-07T02:56:37;101761.16;;;13.92;90.00
72061;BME280;59925;52.136;5.420;2023-05-07T02:59:04;101763.06;;;13.92;90.20
72061;BME280;59925;52.136;5.420;2023-05-07T03:01:30;101764.69;;;13.93;90.30
72061;BME280;59925;52.136;5.420;2023-05-07T03:03:57;101760.09;;;13.93;90.47
72061;BME280;59925;52.136;5.420;2023-05-07T03:06:23;101759.53;;;13.91;90.60
72061;BME280;59925;52.136;5.420;2023-05-07T03:08:50;101769.81;;;13.89;90.71
72061;BME280;59925;52.136;5.420;2023-05-07T03:11:16;101768.44;;;13.87;91.16
72061;BME280;59925;52.136;5.420;2023-05-07T03:13:43;101766.28;;;13.89;91.30
72061;BME280;59925;52.136;5.420;2023-05-07T03:16:09;101766.00;;;13.90;90.75
72061;BME280;59925;52.136;5.420;2023-05-07T03:18:36;101759.53;;;13.91;90.41
72061;BME280;59925;52.136;5.420;2023-05-07T03:21:02;101763.31;;;13.90;90.17
72061;BME280;59925;52.136;5.420;2023-05-07T03:23:29;101757.13;;;13.90;90.07
72061;BME280;59925;52.136;5.420;2023-05-07T03:25:55;101753.63;;;13.89;89.71
72061;BME280;59925;52.136;5.420;2023-05-07T03:28:22;101761.72;;;13.89;89.78
72061;BME280;59925;52.136;5.420;2023-05-07T03:30:48;101757.41;;;13.88;89.93
72061;BME280;59925;52.136;5.420;2023-05-07T03:33:15;101756.88;;;13.86;89.77
72061;BME280;59925;52.136;5.420;2023-05-07T03:35:41;101761.19;;;13.87;89.63
72061;BME280;59925;52.136;5.420;2023-05-07T03:38:08;101754.97;;;13.87;89.66
72061;BME280;59925;52.136;5.420;2023-05-07T03:40:34;101757.13;;;13.85;89.50
72061;BME280;59925;52.136;5.420;2023-05-07T03:43:01;101754.69;;;13.83;89.27
72061;BME280;59925;52.136;5.420;2023-05-07T03:45:27;101755.78;;;13.82;89.26
72061;BME280;59925;52.136;5.420;2023-05-07T03:47:54;101764.41;;;13.84;89.22
72061;BME280;59925;52.136;5.420;2023-05-07T03:50:21;101758.47;;;13.82;89.14
72061;BME280;59925;52.136;5.420;2023-05-07T03:52:47;101764.94;;;13.81;89.10
72061;BME280;59925;52.136;5.420;2023-05-07T03:55:13;101765.75;;;13.82;89.14
72061;BME280;59925;52.136;5.420;2023-05-07T03:57:40;101765.75;;;13.82;89.05
72061;BME280;59925;52.136;5.420;2023-05-07T04:00:07;101762.22;;;13.81;89.23
72061;BME280;59925;52.136;5.420;2023-05-07T04:02:35;101766.00;;;13.80;89.41
72061;BME280;59925;52.136;5.420;2023-05-07T04:05:01;101766.00;;;13.80;89.67
72061;BME280;59925;52.136;5.420;2023-05-07T04:07:28;101771.94;;;13.82;89.73
72061;BME280;59925;52.136;5.420;2023-05-07T04:09:54;101776.53;;;13.82;89.81
72061;BME280;59925;52.136;5.420;2023-05-07T04:12:21;101775.47;;;13.83;89.54
72061;BME280;59925;52.136;5.420;2023-05-07T04:14:47;101772.75;;;13.83;89.54
72061;BME280;59925;52.136;5.420;2023-05-07T04:17:13;101775.47;;;13.83;89.63
72061;BME280;59925;52.136;5.420;2023-05-07T04:19:40;101782.19;;;13.85;89.63
72061;BME280;59925;52.136;5.420;2023-05-07T04:22:11;101775.72;;;13.86;89.63
72061;BME280;59925;52.136;5.420;2023-05-07T04:24:38;101781.66;;;13.88;89.74
72061;BME280;59925;52.136;5.420;2023-05-07T04:27:04;101773.81;;;13.87;89.95
72061;BME280;59925;52.136;5.420;2023-05-07T04:29:32;101775.44;;;13.88;90.11
72061;BME280;59925;52.136;5.420;2023-05-07T04:31:58;101780.84;;;13.88;90.15
72061;BME280;59925;52.136;5.420;2023-05-07T04:34:25;101785.97;;;13.89;90.12
72061;BME280;59925;52.136;5.420;2023-05-07T04:36:51;101781.38;;;13.90;90.25
72061;BME280;59925;52.136;5.420;2023-05-07T04:39:18;101780.03;;;13.92;90.12
72061;BME280;59925;52.136;5.420;2023-05-07T04:41:44;101784.63;;;13.92;90.04
72061;BME280;59925;52.136;5.420;2023-05-07T04:44:11;101783.28;;;13.94;90.14
72061;BME280;59925;52.136;5.420;2023-05-07T04:46:38;101786.50;;;13.97;90.13
72061;BME280;59925;52.136;5.420;2023-05-07T04:49:04;101782.47;;;13.99;89.98
72061;BME280;59925;52.136;5.420;2023-05-07T04:51:31;101787.31;;;13.97;90.17
72061;BME280;59925;52.136;5.420;2023-05-07T04:53:59;101790.00;;;13.97;90.26
72061;BME280;59925;52.136;5.420;2023-05-07T04:56:27;101796.22;;;13.98;89.97
72061;BME280;59925;52.136;5.420;2023-05-07T04:58:54;101798.09;;;13.97;90.19
72061;BME280;59925;52.136;5.420;2023-05-07T05:01:20;101793.53;;;13.98;90.29
72061;BME280;59925;52.136;5.420;2023-05-07T05:03:47;101801.59;;;13.98;89.97
72061;BME280;59925;52.136;5.420;2023-05-07T05:06:13;101798.38;;;14.01;89.96
72061;BME280;59925;52.136;5.420;2023-05-07T05:08:40;101801.06;;;14.01;89.91
72061;BME280;59925;52.136;5.420;2023-05-07T05:11:06;101804.56;;;14.01;90.12
72061;BME280;59925;52.136;5.420;2023-05-07T05:13:33;101795.13;;;14.04;90.01
72061;BME280;59925;52.136;5.420;2023-05-07T05:15:59;101799.72;;;14.08;89.98
72061;BME280;59925;52.136;5.420;2023-05-07T05:18:26;101804.03;;;14.09;90.10
72061;BME280;59925;52.136;5.420;2023-05-07T05:20:52;101809.97;;;14.12;90.00
72061;BME280;59925;52.136;5.420;2023-05-07T05:23:19;101808.09;;;14.12;89.73
72061;BME280;59925;52.136;5.420;2023-05-07T05:25:46;101808.88;;;14.13;90.02
72061;BME280;59925;52.136;5.420;2023-05-07T05:28:12;101805.63;;;14.10;90.10
72061;BME280;59925;52.136;5.420;2023-05-07T05:30:39;101801.88;;;14.12;90.01
72061;BME280;59925;52.136;5.420;2023-05-07T05:33:05;101809.72;;;14.13;90.18
72061;BME280;59925;52.136;5.420;2023-05-07T05:35:32;101811.31;;;14.14;90.19
72061;BME280;59925;52.136;5.420;2023-05-07T05:37:58;101813.47;;;14.12;90.49
72061;BME280;59925;52.136;5.420;2023-05-07T05:40:25;101824.53;;;14.16;90.76
72061;BME280;59925;52.136;5.420;2023-05-07T05:42:51;101826.16;;;14.17;90.56
72061;BME280;59925;52.136;5.420;2023-05-07T05:45:18;101826.16;;;14.22;90.52
72061;BME280;59925;52.136;5.420;2023-05-07T05:47:44;101826.44;;;14.25;90.50
72061;BME280;59925;52.136;5.420;2023-05-07T05:50:11;101831.81;;;14.31;90.12
72061;BME280;59925;52.136;5.420;2023-05-07T05:52:38;101840.16;;;14.39;89.90
72061;BME280;59925;52.136;5.420;2023-05-07T05:55:05;101839.63;;;14.43;90.02
72061;BME280;59925;52.136;5.420;2023-05-07T05:57:31;101844.50;;;14.46;90.24
72061;BME280;59925;52.136;5.420;2023-05-07T05:59:58;101844.47;;;14.51;90.24
72061;BME280;59925;52.136;5.420;2023-05-07T06:02:24;101840.97;;;14.50;90.40
72061;BME280;59925;52.136;5.420;2023-05-07T06:04:51;101852.56;;;14.51;90.15
72061;BME280;59925;52.136;5.420;2023-05-07T06:07:17;101850.69;;;14.51;90.08
72061;BME280;59925;52.136;5.420;2023-05-07T06:09:44;101853.38;;;14.46;90.44
72061;BME280;59925;52.136;5.420;2023-05-07T06:12:11;101855.00;;;14.47;90.63
72061;BME280;59925;52.136;5.420;2023-05-07T06:14:37;101859.31;;;14.48;90.79
72061;BME280;59925;52.136;5.420;2023-05-07T06:17:04;101856.91;;;14.47;90.92
72061;BME280;59925;52.136;5.420;2023-05-07T06:19:31;101854.47;;;14.45;90.92
72061;BME280;59925;52.136;5.420;2023-05-07T06:21:58;101853.41;;;14.41;91.50
72061;BME280;59925;52.136;5.420;2023-05-07T06:24:24;101860.94;;;14.44;91.91
72061;BME280;59925;52.136;5.420;2023-05-07T06:26:50;101866.31;;;14.44;92.07
72061;BME280;59925;52.136;5.420;2023-05-07T06:29:17;101860.41;;;14.47;92.21
72061;BME280;59925;52.136;5.420;2023-05-07T06:31:44;101859.31;;;14.48;92.08
72061;BME280;59925;52.136;5.420;2023-05-07T06:34:10;101852.31;;;14.47;92.24
72061;BME280;59925;52.136;5.420;2023-05-07T06:36:41;101856.34;;;14.50;92.63
72061;BME280;59925;52.136;5.420;2023-05-07T06:39:07;101852.56;;;14.51;92.54
72061;BME280;59925;52.136;5.420;2023-05-07T06:41:34;101863.09;;;14.52;92.26
72061;BME280;59925;52.136;5.420;2023-05-07T06:44:02;101861.47;;;14.56;92.34
72061;BME280;59925;52.136;5.420;2023-05-07T06:46:29;101860.38;;;14.57;92.60
72061;BME280;59925;52.136;5.420;2023-05-07T06:48:56;101866.88;;;14.62;92.68
72061;BME280;59925;52.136;5.420;2023-05-07T06:51:23;101859.56;;;14.62;92.53
72061;BME280;59925;52.136;5.420;2023-05-07T06:53:49;101858.75;;;14.62;92.37
72061;BME280;59925;52.136;5.420;2023-05-07T06:56:16;101857.16;;;14.61;92.24
72061;BME280;59925;52.136;5.420;2023-05-07T06:58:42;101864.41;;;14.65;92.29
72061;BME280;59925;52.136;5.420;2023-05-07T07:01:09;101865.81;;;14.68;92.36
72061;BME280;59925;52.136;5.420;2023-05-07T07:03:35;101859.84;;;14.71;92.54
72061;BME280;59925;52.136;5.420;2023-05-07T07:06:02;101869.03;;;14.80;92.67
72061;BME280;59925;52.136;5.420;2023-05-07T07:08:29;101860.91;;;14.91;93.03
72061;BME280;59925;52.136;5.420;2023-05-07T07:10:55;101857.09;;;15.02;93.08
72061;BME280;59925;52.136;5.420;2023-05-07T07:13:22;101854.91;;;15.14;92.98
72061;BME280;59925;52.136;5.420;2023-05-07T07:15:49;101862.41;;;15.23;92.38
72061;BME280;59925;52.136;5.420;2023-05-07T07:18:15;101865.34;;;15.37;91.99
72061;BME280;59925;52.136;5.420;2023-05-07T07:20:42;101871.78;;;15.51;91.68
72061;BME280;59925;52.136;5.420;2023-05-07T07:23:10;101869.03;;;15.61;91.07
72061;BME280;59925;52.136;5.420;2023-05-07T07:25:37;101861.94;;;15.71;90.71
72061;BME280;59925;52.136;5.420;2023-05-07T07:28:03;101862.25;;;16.09;91.01
72061;BME280;59925;52.136;5.420;2023-05-07T07:30:30;101865.69;;;16.25;89.74
72061;BME280;59925;52.136;5.420;2023-05-07T07:32:56;101866.53;;;16.20;88.65
72061;BME280;59925;52.136;5.420;2023-05-07T07:35:29;101868.16;;;16.16;88.42
72061;BME280;59925;52.136;5.420;2023-05-07T07:37:55;101875.41;;;16.26;88.16
72061;BME280;59925;52.136;5.420;2023-05-07T07:40:22;101880.81;;;16.26;87.85
72061;BME280;59925;52.136;5.420;2023-05-07T07:42:48;101871.00;;;16.35;87.78
72061;BME280;59925;52.136;5.420;2023-05-07T07:45:15;101873.91;;;16.44;86.98
72061;BME280;59925;52.136;5.420;2023-05-07T07:47:41;101875.56;;;16.69;86.41
72061;BME280;59925;52.136;5.420;2023-05-07T07:50:08;101875.47;;;16.80;85.80
72061;BME280;59925;52.136;5.420;2023-05-07T07:52:35;101875.63;;;16.89;85.05
72061;BME280;59925;52.136;5.420;2023-05-07T07:55:02;101879.94;;;16.95;84.72
72061;BME280;59925;52.136;5.420;2023-05-07T07:57:29;101884.38;;;17.10;83.95
72061;BME280;59925;52.136;5.420;2023-05-07T07:59:55;101886.41;;;17.23;83.82
72061;BME280;59925;52.136;5.420;2023-05-07T08:02:22;101886.88;;;17.30;83.98
72061;BME280;59925;52.136;5.420;2023-05-07T08:04:49;101887.47;;;17.46;84.45
72061;BME280;59925;52.136;5.420;2023-05-07T08:07:15;101884.41;;;17.53;83.97
72061;BME280;59925;52.136;5.420;2023-05-07T08:09:44;101887.19;;;17.48;83.02
72061;BME280;59925;52.136;5.420;2023-05-07T08:12:11;101894.13;;;17.35;81.94
72061;BME280;59925;52.136;5.420;2023-05-07T08:14:37;101887.50;;;17.22;82.22
72061;BME280;59925;52.136;5.420;2023-05-07T08:17:04;101889.44;;;17.16;82.35
72061;BME280;59925;52.136;5.420;2023-05-07T08:19:30;101891.16;;;17.12;82.31
72061;BME280;59925;52.136;5.420;2023-05-07T08:21:57;101896.94;;;17.00;83.05
72061;BME280;59925;52.136;5.420;2023-05-07T08:24:23;101894.38;;;16.85;84.98
72061;BME280;59925;52.136;5.420;2023-05-07T08:26:50;101898.28;;;16.74;85.51
72061;BME280;59925;52.136;5.420;2023-05-07T08:29:17;101891.09;;;16.59;86.10
72061;BME280;59925;52.136;5.420;2023-05-07T08:31:43;101895.44;;;16.60;86.87
72061;BME280;59925;52.136;5.420;2023-05-07T08:34:10;101887.78;;;16.67;87.22
72061;BME280;59925;52.136;5.420;2023-05-07T08:36:36;101893.41;;;16.70;87.02
72061;BME280;59925;52.136;5.420;2023-05-07T08:39:03;101896.69;;;16.67;86.92
72061;BME280;59925;52.136;5.420;2023-05-07T08:41:30;101894.56;;;16.64;87.10
72061;BME280;59925;52.136;5.420;2023-05-07T08:43:58;101902.63;;;16.69;87.10
72061;BME280;59925;52.136;5.420;2023-05-07T08:46:31;101896.94;;;16.71;87.21
72061;BME280;59925;52.136;5.420;2023-05-07T08:48:58;101896.03;;;16.81;87.16
72061;BME280;59925;52.136;5.420;2023-05-07T08:51:24;101890.59;;;16.81;87.00
72061;BME280;59925;52.136;5.420;2023-05-07T08:53:51;101898.16;;;16.84;86.89
72061;BME280;59925;52.136;5.420;2023-05-07T08:56:17;101895.19;;;16.85;86.93
72061;BME280;59925;52.136;5.420;2023-05-07T08:58:48;101895.63;;;16.98;87.21
72061;BME280;59925;52.136;5.420;2023-05-07T09:01:16;101897.53;;;16.97;86.41
72061;BME280;59925;52.136;5.420;2023-05-07T09:03:46;101899.97;;;16.99;86.64
72061;BME280;59925;52.136;5.420;2023-05-07T09:06:13;101902.41;;;16.95;86.09
72061;BME280;59925;52.136;5.420;2023-05-07T09:08:40;101897.31;;;16.89;86.62
72061;BME280;59925;52.136;5.420;2023-05-07T09:11:07;101891.31;;;16.92;87.31
72061;BME280;59925;52.136;5.420;2023-05-07T09:13:34;101895.13;;;16.91;87.15
72061;BME280;59925;52.136;5.420;2023-05-07T09:16:10;101891.72;;;16.80;87.27
72061;BME280;59925;52.136;5.420;2023-05-07T09:18:44;101895.41;;;16.89;87.72
72061;BME280;59925;52.136;5.420;2023-05-07T09:21:14;101890.22;;;16.98;87.46
72061;BME280;59925;52.136;5.420;2023-05-07T09:23:41;101895.22;;;17.10;87.70
72061;BME280;59925;52.136;5.420;2023-05-07T09:26:08;101898.44;;;17.12;87.38
72061;BME280;59925;52.136;5.420;2023-05-07T09:28:41;101904.63;;;17.18;87.49
72061;BME280;59925;52.136;5.420;2023-05-07T09:31:09;101901.56;;;17.24;87.27
72061;BME280;59925;52.136;5.420;2023-05-07T09:33:36;101903.75;;;17.22;86.57
72061;BME280;59925;52.136;5.420;2023-05-07T09:36:04;101901.16;;;17.12;85.89
72061;BME280;59925;52.136;5.420;2023-05-07T09:38:35;101907.84;;;17.20;86.26
72061;BME280;59925;52.136;5.420;2023-05-07T09:41:12;101910.38;;;17.35;85.79
72061;BME280;59925;52.136;5.420;2023-05-07T09:43:39;101897.88;;;17.39;85.31
72061;BME280;59925;52.136;5.420;2023-05-07T09:46:12;101904.53;;;17.47;84.39
72061;BME280;59925;52.136;5.420;2023-05-07T09:48:41;101906.69;;;17.50;83.54
72061;BME280;59925;52.136;5.420;2023-05-07T09:51:29;101900.25;;;17.65;84.02
72061;BME280;59925;52.136;5.420;2023-05-07T09:53:57;101902.53;;;17.77;83.47
72061;BME280;59925;52.136;5.420;2023-05-07T09:56:27;101907.31;;;17.66;82.65
72061;BME280;59925;52.136;5.420;2023-05-07T09:58:56;101917.09;;;17.62;82.51
72061;BME280;59925;52.136;5.420;2023-05-07T10:01:24;101904.47;;;17.52;82.22
72061;BME280;59925;52.136;5.420;2023-05-07T10:03:52;101917.47;;;17.55;82.73
72061;BME280;59925;52.136;5.420;2023-05-07T10:06:20;101915.66;;;17.70;82.85
72061;BME280;59925;52.136;5.420;2023-05-07T10:08:47;101919.03;;;17.81;82.53
72061;BME280;59925;52.136;5.420;2023-05-07T10:11:14;101916.47;;;17.89;82.75
72061;BME280;59925;52.136;5.420;2023-05-07T10:13:43;101922.53;;;18.05;82.61
72061;BME280;59925;52.136;5.420;2023-05-07T10:16:09;101917.00;;;18.11;81.92
72061;BME280;59925;52.136;5.420;2023-05-07T10:18:36;101916.63;;;18.17;81.35
72061;BME280;59925;52.136;5.420;2023-05-07T10:21:20;101917.72;;;18.16;81.31
72061;BME280;59925;52.136;5.420;2023-05-07T10:23:50;101924.78;;;18.17;80.62
72061;BME280;59925;52.136;5.420;2023-05-07T10:26:18;101923.63;;;18.23;80.79
72061;BME280;59925;52.136;5.420;2023-05-07T10:28:50;101909.31;;;18.51;80.75
72061;BME280;59925;52.136;5.420;2023-05-07T10:34:02;101918.03;;;18.81;79.89
72061;BME280;59925;52.136;5.420;2023-05-07T10:36:34;101917.91;;;19.05;79.91
72061;BME280;59925;52.136;5.420;2023-05-07T10:39:05;101912.16;;;19.21;79.23
72061;BME280;59925;52.136;5.420;2023-05-07T10:41:32;101914.88;;;19.21;79.06
72061;BME280;59925;52.136;5.420;2023-05-07T10:43:59;101915.38;;;19.51;78.89
72061;BME280;59925;52.136;5.420;2023-05-07T10:46:28;101916.81;;;19.99;79.31
72061;BME280;59925;52.136;5.420;2023-05-07T10:51:33;101914.63;;;20.55;76.12
72061;BME280;59925;52.136;5.420;2023-05-07T10:56:39;101920.41;;;20.76;72.67
72061;BME280;59925;52.136;5.420;2023-05-07T10:59:30;101912.88;;;20.82;71.19
72061;BME280;59925;52.136;5.420;2023-05-07T11:01:58;101914.38;;;20.88;72.94
72061;BME280;59925;52.136;5.420;2023-05-07T11:04:25;101909.78;;;21.06;72.62
72061;BME280;59925;52.136;5.420;2023-05-07T11:15:07;101919.38;;;20.95;71.11
72061;BME280;59925;52.136;5.420;2023-05-07T11:17:51;101920.06;;;21.09;71.39
72061;BME280;59925;52.136;5.420;2023-05-07T11:20:18;101918.50;;;21.26;71.77
72061;BME280;59925;52.136;5.420;2023-05-07T11:22:45;101919.03;;;21.37;70.07
72061;BME280;59925;52.136;5.420;2023-05-07T11:25:17;101921.44;;;21.30;70.52
72061;BME280;59925;52.136;5.420;2023-05-07T11:27:45;101926.06;;;21.29;70.31
72061;BME280;59925;52.136;5.420;2023-05-07T11:30:20;101927.22;;;21.37;71.81
72061;BME280;59925;52.136;5.420;2023-05-07T11:32:48;101926.44;;;21.54;70.57
72061;BME280;59925;52.136;5.420;2023-05-07T11:35:15;101926.19;;;21.73;70.35
72061;BME280;59925;52.136;5.420;2023-05-07T11:37:42;101921.06;;;22.15;70.75
72061;BME280;59925;52.136;5.420;2023-05-07T11:40:11;101912.81;;;22.50;69.48
72061;BME280;59925;52.136;5.420;2023-05-07T11:42:40;101923.34;;;22.78;69.60
72061;BME280;59925;52.136;5.420;2023-05-07T11:45:09;101917.72;;;22.84;67.73
72061;BME280;59925;52.136;5.420;2023-05-07T11:47:36;101920.94;;;22.86;67.35
72061;BME280;59925;52.136;5.420;2023-05-07T11:50:05;101915.50;;;23.16;67.33
72061;BME280;59925;52.136;5.420;2023-05-07T11:52:32;101921.38;;;23.35;65.95
72061;BME280;59925;52.136;5.420;2023-05-07T11:54:59;101924.97;;;23.27;64.52
72061;BME280;59925;52.136;5.420;2023-05-07T11:57:27;101925.38;;;22.99;66.78
72061;BME280;59925;52.136;5.420;2023-05-07T11:59:58;101911.59;;;22.87;66.23
72061;BME280;59925;52.136;5.420;2023-05-07T12:02:25;101919.22;;;22.72;65.48
72061;BME280;59925;52.136;5.420;2023-05-07T12:04:53;101916.91;;;22.83;65.64
72061;BME280;59925;52.136;5.420;2023-05-07T12:07:20;101914.06;;;23.09;65.06
72061;BME280;59925;52.136;5.420;2023-05-07T12:09:46;101920.84;;;23.03;64.57
72061;BME280;59925;52.136;5.420;2023-05-07T12:12:14;101915.16;;;23.26;64.29
72061;BME280;59925;52.136;5.420;2023-05-07T12:14:45;101921.13;;;23.70;64.52
72061;BME280;59925;52.136;5.420;2023-05-07T12:17:13;101921.44;;;23.99;63.61
72061;BME280;59925;52.136;5.420;2023-05-07T12:19:42;101920.19;;;24.42;63.11
72061;BME280;59925;52.136;5.420;2023-05-07T12:22:09;101911.25;;;24.67;59.46
72061;BME280;59925;52.136;5.420;2023-05-07T12:24:58;101917.84;;;24.53;59.98
72061;BME280;59925;52.136;5.420;2023-05-07T12:27:25;101914.66;;;24.63;60.10
72061;BME280;59925;52.136;5.420;2023-05-07T12:29:52;101912.69;;;24.85;58.71
72061;BME280;59925;52.136;5.420;2023-05-07T12:32:20;101911.28;;;25.04;59.16
72061;BME280;59925;52.136;5.420;2023-05-07T12:34:51;101910.59;;;25.19;59.37
72061;BME280;59925;52.136;5.420;2023-05-07T12:37:23;101914.94;;;25.20;57.56
72061;BME280;59925;52.136;5.420;2023-05-07T12:40:09;101915.00;;;24.62;57.94
72061;BME280;59925;52.136;5.420;2023-05-07T12:42:37;101909.41;;;24.12;59.13
72061;BME280;59925;52.136;5.420;2023-05-07T12:45:11;101904.47;;;24.06;60.24
72061;BME280;59925;52.136;5.420;2023-05-07T12:47:43;101908.91;;;24.44;61.31
72061;BME280;59925;52.136;5.420;2023-05-07T12:50:10;101911.44;;;25.07;60.87
72061;BME280;59925;52.136;5.420;2023-05-07T12:52:36;101905.09;;;25.57;57.14
72061;BME280;59925;52.136;5.420;2023-05-07T12:55:07;101919.06;;;25.39;55.31
72061;BME280;59925;52.136;5.420;2023-05-07T12:57:39;101916.78;;;25.04;54.69
72061;BME280;59925;52.136;5.420;2023-05-07T13:00:06;101913.25;;;24.78;56.56
72061;BME280;59925;52.136;5.420;2023-05-07T13:02:33;101919.03;;;24.77;53.85
72061;BME280;59925;52.136;5.420;2023-05-07T13:05:01;101921.94;;;24.81;54.66
72061;BME280;59925;52.136;5.420;2023-05-07T13:07:27;101917.34;;;24.85;54.12